sensor_id;sensor_type;location;lat;lon;timestamp;pressure;altitude;pressure_sealevel;temperature;humidity
29163;BME280;20331;53.144;8.208;2023-09-19T00:01:03;100412.88;;;17.43;94.32
29163;BME280;20331;53.144;8.208;2023-09-19T00:06:24;100420.63;;;17.44;95.33
29163;BME280;20331;53.144;8.208;2023-09-19T00:11:49;100419.78;;;17.44;94.47
29163;BME280;20331;53.144;8.208;2023-09-19T00:17:11;100436.44;;;17.43;94.94
29163;BME280;20331;53.144;8.208;2023-09-19T00:22:33;100435.31;;;17.47;95.25
29163;BME280;20331;53.144;8.208;2023-09-19T00:27:54;100450.09;;;17.48;93.08
29163;BME280;20331;53.144;8.208;2023-09-19T00:33:17;100436.78;;;17.51;92.89
29163;BME280;20331;53.144;8.208;2023-09-19T00:38:40;100443.34;;;17.44;91.67
29163;BME280;20331;53.144;8.208;2023-09-19T00:44:02;100454.94;;;17.40;91.02
29163;BME280;20331;53.144;8.208;2023-09-19T00:49:25;100463.72;;;17.39;91.38
29163;BME280;20331;53.144;8.208;2023-09-19T00:54:47;100456.16;;;17.34;91.53
29163;BME280;20331;53.144;8.208;2023-09-19T01:00:10;100465.25;;;17.29;89.73
29163;BME280;20331;53.144;8.208;2023-09-19T01:05:33;100482.25;;;17.22;89.59
29163;BME280;20331;53.144;8.208;2023-09-19T01:10:59;100495.16;;;17.25;90.16
29163;BME280;20331;53.144;8.208;2023-09-19T01:17:08;100495.91;;;17.27;90.81
29163;BME280;20331;53.144;8.208;2023-09-19T01:28:20;100515.34;;;17.23;90.43
29163;BME280;20331;53.144;8.208;2023-09-19T01:33:58;100515.72;;;17.17;90.15
29163;BME280;20331;53.144;8.208;2023-09-19T01:39:21;100534.31;;;17.12;90.02
29163;BME280;20331;53.144;8.208;2023-09-19T01:44:59;100516.09;;;16.96;90.45
29163;BME280;20331;53.144;8.208;2023-09-19T01:50:42;100528.72;;;16.90;89.87
29163;BME280;20331;53.144;8.208;2023-09-19T01:56:08;100526.56;;;16.82;89.42
29163;BME280;20331;53.144;8.208;2023-09-19T02:01:34;100535.72;;;16.75;89.04
29163;BME280;20331;53.144;8.208;2023-09-19T02:06:58;100529.06;;;16.70;88.99
29163;BME280;20331;53.144;8.208;2023-09-19T02:12:20;100528.94;;;16.57;88.45
29163;BME280;20331;53.144;8.208;2023-09-19T02:17:42;100539.34;;;16.43;88.59
29163;BME280;20331;53.144;8.208;2023-09-19T02:23:06;100540.53;;;16.38;88.96
29163;BME280;20331;53.144;8.208;2023-09-19T02:28:29;100551.81;;;16.24;88.96
29163;BME280;20331;53.144;8.208;2023-09-19T02:33:52;100557.09;;;16.23;89.63
29163;BME280;20331;53.144;8.208;2023-09-19T02:39:13;100554.19;;;16.13;89.29
29163;BME280;20331;53.144;8.208;2023-09-19T02:44:35;100567.59;;;16.07;90.09
29163;BME280;20331;53.144;8.208;2023-09-19T02:49:56;100552.63;;;15.95;90.42
29163;BME280;20331;53.144;8.208;2023-09-19T02:55:19;100553.81;;;15.89;90.55
29163;BME280;20331;53.144;8.208;2023-09-19T03:00:42;100555.81;;;15.84;90.97
29163;BME280;20331;53.144;8.208;2023-09-19T03:06:04;100567.03;;;15.71;91.33
29163;BME280;20331;53.144;8.208;2023-09-19T03:11:26;100565.00;;;15.76;91.56
29163;BME280;20331;53.144;8.208;2023-09-19T03:16:48;100583.09;;;15.79;91.29
29163;BME280;20331;53.144;8.208;2023-09-19T03:22:09;100590.91;;;15.79;91.39
29163;BME280;20331;53.144;8.208;2023-09-19T03:27:31;100579.06;;;15.73;91.14
29163;BME280;20331;53.144;8.208;2023-09-19T03:32:53;100592.50;;;15.66;90.98
29163;BME280;20331;53.144;8.208;2023-09-19T03:38:15;100595.75;;;15.71;91.12
29163;BME280;20331;53.144;8.208;2023-09-19T03:43:36;100598.44;;;15.69;90.46
29163;BME280;20331;53.144;8.208;2023-09-19T03:48:58;100589.19;;;15.64;90.75
29163;BME280;20331;53.144;8.208;2023-09-19T03:54:20;100599.75;;;15.61;90.63
29163;BME280;20331;53.144;8.208;2023-09-19T03:59:41;100599.75;;;15.61;90.42
29163;BME280;20331;53.144;8.208;2023-09-19T04:05:04;100598.91;;;15.60;90.17
29163;BME280;20331;53.144;8.208;2023-09-19T04:10:27;100591.53;;;15.53;90.26
29163;BME280;20331;53.144;8.208;2023-09-19T04:15:49;100594.94;;;15.53;89.61
29163;BME280;20331;53.144;8.208;2023-09-19T04:21:11;100602.09;;;15.50;90.00
29163;BME280;20331;53.144;8.208;2023-09-19T04:26:33;100588.38;;;15.46;89.65
29163;BME280;20331;53.144;8.208;2023-09-19T04:31:55;100606.13;;;15.40;89.59
29163;BME280;20331;53.144;8.208;2023-09-19T04:37:18;100610.47;;;15.39;89.54
29163;BME280;20331;53.144;8.208;2023-09-19T04:42:45;100613.16;;;15.38;89.14
29163;BME280;20331;53.144;8.208;2023-09-19T04:48:14;100616.09;;;15.32;88.78
29163;BME280;20331;53.144;8.208;2023-09-19T04:53:37;100632.81;;;15.28;89.49
29163;BME280;20331;53.144;8.208;2023-09-19T04:58:59;100635.50;;;15.26;89.28
29163;BME280;20331;53.144;8.208;2023-09-19T05:04:21;100654.59;;;15.27;89.12
29163;BME280;20331;53.144;8.208;2023-09-19T05:09:43;100656.44;;;15.25;89.50
29163;BME280;20331;53.144;8.208;2023-09-19T05:15:05;100652.13;;;15.24;89.49
29163;BME280;20331;53.144;8.208;2023-09-19T05:20:30;100642.06;;;15.18;90.46
29163;BME280;20331;53.144;8.208;2023-09-19T05:25:54;100652.91;;;15.26;90.59
29163;BME280;20331;53.144;8.208;2023-09-19T05:31:18;100646.78;;;15.27;89.63
29163;BME280;20331;53.144;8.208;2023-09-19T05:36:40;100634.50;;;15.29;90.25
29163;BME280;20331;53.144;8.208;2023-09-19T05:42:02;100663.28;;;15.27;90.02
29163;BME280;20331;53.144;8.208;2023-09-19T05:47:24;100665.47;;;15.35;90.05
29163;BME280;20331;53.144;8.208;2023-09-19T05:52:53;100667.00;;;15.39;90.16
29163;BME280;20331;53.144;8.208;2023-09-19T05:58:15;100684.97;;;15.45;89.88
29163;BME280;20331;53.144;8.208;2023-09-19T06:03:39;100666.53;;;15.48;89.35
29163;BME280;20331;53.144;8.208;2023-09-19T06:09:01;100666.41;;;15.51;89.90
29163;BME280;20331;53.144;8.208;2023-09-19T06:14:23;100667.91;;;15.55;89.28
29163;BME280;20331;53.144;8.208;2023-09-19T06:19:46;100688.63;;;15.58;89.23
29163;BME280;20331;53.144;8.208;2023-09-19T06:25:10;100693.06;;;15.56;89.79
29163;BME280;20331;53.144;8.208;2023-09-19T06:30:40;100683.53;;;15.55;90.00
29163;BME280;20331;53.144;8.208;2023-09-19T06:36:03;100693.25;;;15.53;90.50
29163;BME280;20331;53.144;8.208;2023-09-19T06:41:25;100705.34;;;15.54;89.84
29163;BME280;20331;53.144;8.208;2023-09-19T06:46:47;100716.25;;;15.45;91.56
29163;BME280;20331;53.144;8.208;2023-09-19T06:52:12;100723.25;;;15.44;91.62
29163;BME280;20331;53.144;8.208;2023-09-19T06:57:34;100722.25;;;15.47;90.72
29163;BME280;20331;53.144;8.208;2023-09-19T07:08:23;100724.13;;;15.60;89.13
29163;BME280;20331;53.144;8.208;2023-09-19T07:13:44;100733.25;;;15.69;88.00
29163;BME280;20331;53.144;8.208;2023-09-19T07:19:06;100745.91;;;15.76;87.08
29163;BME280;20331;53.144;8.208;2023-09-19T07:24:28;100751.63;;;15.83;86.08
29163;BME280;20331;53.144;8.208;2023-09-19T07:29:50;100740.56;;;15.95;85.44
29163;BME280;20331;53.144;8.208;2023-09-19T07:35:15;100730.34;;;16.06;85.04
29163;BME280;20331;53.144;8.208;2023-09-19T07:40:37;100722.94;;;16.14;85.98
29163;BME280;20331;53.144;8.208;2023-09-19T07:46:03;100733.75;;;16.24;84.82
29163;BME280;20331;53.144;8.208;2023-09-19T07:51:25;100730.44;;;16.36;83.91
29163;BME280;20331;53.144;8.208;2023-09-19T07:56:47;100730.19;;;16.40;83.32
29163;BME280;20331;53.144;8.208;2023-09-19T08:02:09;100737.22;;;16.55;82.47
29163;BME280;20331;53.144;8.208;2023-09-19T08:07:38;100734.00;;;16.66;81.89
29163;BME280;20331;53.144;8.208;2023-09-19T08:13:00;100730.28;;;16.70;80.65
29163;BME280;20331;53.144;8.208;2023-09-19T08:18:23;100735.25;;;16.74;82.57
29163;BME280;20331;53.144;8.208;2023-09-19T08:23:45;100730.44;;;16.82;81.54
29163;BME280;20331;53.144;8.208;2023-09-19T08:29:07;100738.31;;;16.96;80.28
29163;BME280;20331;53.144;8.208;2023-09-19T08:34:33;100732.56;;;17.05;80.39
29163;BME280;20331;53.144;8.208;2023-09-19T08:39:55;100737.59;;;17.08;78.62
29163;BME280;20331;53.144;8.208;2023-09-19T08:45:17;100730.69;;;17.07;79.56
29163;BME280;20331;53.144;8.208;2023-09-19T08:51:06;100733.88;;;17.13;77.68
29163;BME280;20331;53.144;8.208;2023-09-19T08:56:29;100734.53;;;17.16;79.43
29163;BME280;20331;53.144;8.208;2023-09-19T09:01:51;100755.59;;;17.29;77.64
29163;BME280;20331;53.144;8.208;2023-09-19T09:07:16;100744.75;;;17.35;76.56
29163;BME280;20331;53.144;8.208;2023-09-19T09:12:38;100745.31;;;17.40;77.10
29163;BME280;20331;53.144;8.208;2023-09-19T09:18:02;100758.59;;;17.37;77.62
29163;BME280;20331;53.144;8.208;2023-09-19T09:23:26;100764.59;;;17.39;78.10
29163;BME280;20331;53.144;8.208;2023-09-19T09:28:50;100765.69;;;17.35;77.96
29163;BME280;20331;53.144;8.208;2023-09-19T09:34:13;100756.72;;;17.39;77.41
29163;BME280;20331;53.144;8.208;2023-09-19T09:39:36;100754.50;;;17.47;77.92
29163;BME280;20331;53.144;8.208;2023-09-19T09:45:15;100749.88;;;17.52;75.65
29163;BME280;20331;53.144;8.208;2023-09-19T09:50:38;100758.56;;;17.52;77.00
29163;BME280;20331;53.144;8.208;2023-09-19T09:56:18;100764.06;;;17.62;77.39
29163;BME280;20331;53.144;8.208;2023-09-19T10:01:46;100767.44;;;17.64;75.71
29163;BME280;20331;53.144;8.208;2023-09-19T10:07:09;100783.75;;;17.69;77.00
29163;BME280;20331;53.144;8.208;2023-09-19T10:12:46;100773.47;;;17.80;75.15
29163;BME280;20331;53.144;8.208;2023-09-19T10:18:10;100765.59;;;17.94;74.44
29163;BME280;20331;53.144;8.208;2023-09-19T10:23:33;100771.28;;;18.00;73.97
29163;BME280;20331;53.144;8.208;2023-09-19T10:28:57;100775.78;;;18.13;73.69
29163;BME280;20331;53.144;8.208;2023-09-19T10:34:21;100776.44;;;18.16;72.94
29163;BME280;20331;53.144;8.208;2023-09-19T10:39:48;100759.66;;;18.19;73.50
29163;BME280;20331;53.144;8.208;2023-09-19T10:45:11;100751.16;;;18.29;72.86
29163;BME280;20331;53.144;8.208;2023-09-19T10:50:47;100756.84;;;18.36;70.93
29163;BME280;20331;53.144;8.208;2023-09-19T10:56:10;100764.25;;;18.43;69.12
29163;BME280;20331;53.144;8.208;2023-09-19T11:01:43;100755.25;;;18.47;71.21
29163;BME280;20331;53.144;8.208;2023-09-19T11:07:15;100756.81;;;18.50;70.11
29163;BME280;20331;53.144;8.208;2023-09-19T11:18:02;100753.78;;;18.70;68.58
29163;BME280;20331;53.144;8.208;2023-09-19T11:29:30;100756.47;;;18.82;68.23
29163;BME280;20331;53.144;8.208;2023-09-19T11:35:06;100752.69;;;18.86;67.39
29163;BME280;20331;53.144;8.208;2023-09-19T11:40:29;100740.06;;;18.79;69.60
29163;BME280;20331;53.144;8.208;2023-09-19T11:51:20;100726.47;;;18.99;69.35
29163;BME280;20331;53.144;8.208;2023-09-19T11:56:52;100724.66;;;19.14;66.29
29163;BME280;20331;53.144;8.208;2023-09-19T12:02:39;100722.09;;;19.25;66.24
29163;BME280;20331;53.144;8.208;2023-09-19T12:08:04;100716.78;;;19.26;66.45
29163;BME280;20331;53.144;8.208;2023-09-19T12:13:29;100721.72;;;19.31;67.79
29163;BME280;20331;53.144;8.208;2023-09-19T12:18:53;100713.75;;;19.32;66.52
29163;BME280;20331;53.144;8.208;2023-09-19T12:24:15;100700.22;;;19.38;66.83
29163;BME280;20331;53.144;8.208;2023-09-19T12:29:43;100721.97;;;19.53;66.74
29163;BME280;20331;53.144;8.208;2023-09-19T12:35:06;100694.88;;;19.65;67.43
29163;BME280;20331;53.144;8.208;2023-09-19T12:40:34;100695.28;;;19.71;66.62
29163;BME280;20331;53.144;8.208;2023-09-19T12:45:59;100682.13;;;19.84;66.97
29163;BME280;20331;53.144;8.208;2023-09-19T12:51:21;100673.22;;;19.74;66.93
29163;BME280;20331;53.144;8.208;2023-09-19T12:56:45;100645.91;;;19.64;68.60
29163;BME280;20331;53.144;8.208;2023-09-19T13:02:10;100641.28;;;19.67;68.33
29163;BME280;20331;53.144;8.208;2023-09-19T13:07:44;100650.50;;;19.73;67.39
29163;BME280;20331;53.144;8.208;2023-09-19T13:13:22;100646.97;;;19.74;67.00
29163;BME280;20331;53.144;8.208;2023-09-19T13:18:48;100649.66;;;19.85;66.71
29163;BME280;20331;53.144;8.208;2023-09-19T13:24:23;100654.69;;;19.88;65.69
29163;BME280;20331;53.144;8.208;2023-09-19T13:29:47;100649.00;;;19.94;65.60
29163;BME280;20331;53.144;8.208;2023-09-19T13:35:09;100629.88;;;19.92;64.92
29163;BME280;20331;53.144;8.208;2023-09-19T13:40:32;100632.06;;;19.98;65.70
29163;BME280;20331;53.144;8.208;2023-09-19T13:45:56;100639.00;;;19.99;64.61
29163;BME280;20331;53.144;8.208;2023-09-19T13:51:19;100615.59;;;19.96;66.63
29163;BME280;20331;53.144;8.208;2023-09-19T13:56:41;100636.59;;;19.96;65.52
29163;BME280;20331;53.144;8.208;2023-09-19T14:02:03;100635.88;;;19.94;68.03
29163;BME280;20331;53.144;8.208;2023-09-19T14:07:25;100637.22;;;19.87;66.20
29163;BME280;20331;53.144;8.208;2023-09-19T14:12:47;100632.63;;;19.78;67.00
29163;BME280;20331;53.144;8.208;2023-09-19T14:18:09;100616.88;;;19.78;67.88
29163;BME280;20331;53.144;8.208;2023-09-19T14:23:37;100622.06;;;19.79;67.19
29163;BME280;20331;53.144;8.208;2023-09-19T14:28:59;100608.31;;;19.76;67.46
29163;BME280;20331;53.144;8.208;2023-09-19T14:34:21;100618.81;;;19.76;67.82
29163;BME280;20331;53.144;8.208;2023-09-19T14:39:43;100615.94;;;19.79;67.61
29163;BME280;20331;53.144;8.208;2023-09-19T14:45:08;100606.59;;;19.75;67.59
29163;BME280;20331;53.144;8.208;2023-09-19T14:50:31;100611.47;;;19.68;68.55
29163;BME280;20331;53.144;8.208;2023-09-19T14:55:52;100616.28;;;19.62;69.05
29163;BME280;20331;53.144;8.208;2023-09-19T15:01:16;100612.75;;;19.63;69.92
29163;BME280;20331;53.144;8.208;2023-09-19T15:06:38;100618.91;;;19.62;70.02
29163;BME280;20331;53.144;8.208;2023-09-19T15:11:59;100601.03;;;19.67;69.16
29163;BME280;20331;53.144;8.208;2023-09-19T15:17:21;100596.84;;;19.77;69.21
29163;BME280;20331;53.144;8.208;2023-09-19T15:22:43;100608.81;;;19.81;66.87
29163;BME280;20331;53.144;8.208;2023-09-19T15:28:05;100592.31;;;19.79;68.24
29163;BME280;20331;53.144;8.208;2023-09-19T15:33:30;100595.38;;;19.73;68.37
29163;BME280;20331;53.144;8.208;2023-09-19T15:39:06;100597.78;;;19.76;67.65
29163;BME280;20331;53.144;8.208;2023-09-19T15:44:28;100589.19;;;19.74;68.88
29163;BME280;20331;53.144;8.208;2023-09-19T15:49:50;100571.72;;;19.73;68.54
29163;BME280;20331;53.144;8.208;2023-09-19T15:55:12;100590.97;;;19.73;68.28
29163;BME280;20331;53.144;8.208;2023-09-19T16:00:33;100576.38;;;19.69;68.75
29163;BME280;20331;53.144;8.208;2023-09-19T16:05:58;100579.59;;;19.73;69.45
29163;BME280;20331;53.144;8.208;2023-09-19T16:11:19;100565.03;;;19.69;68.36
29163;BME280;20331;53.144;8.208;2023-09-19T16:16:42;100589.84;;;19.65;68.37
29163;BME280;20331;53.144;8.208;2023-09-19T16:22:04;100572.63;;;19.61;69.05
29163;BME280;20331;53.144;8.208;2023-09-19T16:27:25;100582.91;;;19.64;69.29
29163;BME280;20331;53.144;8.208;2023-09-19T16:32:47;100586.69;;;19.60;68.83
29163;BME280;20331;53.144;8.208;2023-09-19T16:38:09;100585.88;;;19.59;68.88
29163;BME280;20331;53.144;8.208;2023-09-19T16:43:31;100602.66;;;19.57;68.49
29163;BME280;20331;53.144;8.208;2023-09-19T16:48:55;100587.84;;;19.56;68.47
29163;BME280;20331;53.144;8.208;2023-09-19T16:54:20;100606.88;;;19.59;68.50
29163;BME280;20331;53.144;8.208;2023-09-19T16:59:42;100607.69;;;19.60;69.06
29163;BME280;20331;53.144;8.208;2023-09-19T17:05:04;100601.69;;;19.58;69.14
29163;BME280;20331;53.144;8.208;2023-09-19T17:10:26;100607.28;;;19.53;69.66
29163;BME280;20331;53.144;8.208;2023-09-19T17:16:02;100608.56;;;19.48;68.92
29163;BME280;20331;53.144;8.208;2023-09-19T17:21:26;100615.06;;;19.55;69.05
29163;BME280;20331;53.144;8.208;2023-09-19T17:26:48;100607.19;;;19.55;69.74
29163;BME280;20331;53.144;8.208;2023-09-19T17:32:10;100609.81;;;19.55;70.07
29163;BME280;20331;53.144;8.208;2023-09-19T17:37:33;100615.16;;;19.53;70.25
29163;BME280;20331;53.144;8.208;2023-09-19T17:42:55;100621.47;;;19.51;70.09
29163;BME280;20331;53.144;8.208;2023-09-19T17:48:21;100616.03;;;19.54;70.03
29163;BME280;20331;53.144;8.208;2023-09-19T17:53:43;100633.44;;;19.55;69.97
29163;BME280;20331;53.144;8.208;2023-09-19T17:59:05;100621.56;;;19.49;70.33
29163;BME280;20331;53.144;8.208;2023-09-19T18:04:28;100631.22;;;19.49;70.36
29163;BME280;20331;53.144;8.208;2023-09-19T18:09:50;100640.56;;;19.53;69.94
29163;BME280;20331;53.144;8.208;2023-09-19T18:15:12;100603.09;;;19.51;70.35
29163;BME280;20331;53.144;8.208;2023-09-19T18:20:34;100633.97;;;19.47;70.66
29163;BME280;20331;53.144;8.208;2023-09-19T18:25:57;100641.31;;;19.42;70.68
29163;BME280;20331;53.144;8.208;2023-09-19T18:31:19;100662.94;;;19.46;70.70
29163;BME280;20331;53.144;8.208;2023-09-19T18:36:41;100651.22;;;19.39;70.75
29163;BME280;20331;53.144;8.208;2023-09-19T18:42:05;100648.47;;;19.40;70.59
29163;BME280;20331;53.144;8.208;2023-09-19T18:47:27;100650.34;;;19.38;71.04
29163;BME280;20331;53.144;8.208;2023-09-19T18:52:50;100649.94;;;19.32;70.99
29163;BME280;20331;53.144;8.208;2023-09-19T18:58:12;100649.00;;;19.33;71.55
29163;BME280;20331;53.144;8.208;2023-09-19T19:03:35;100651.41;;;19.36;71.34
29163;BME280;20331;53.144;8.208;2023-09-19T19:08:58;100654.13;;;19.34;71.57
29163;BME280;20331;53.144;8.208;2023-09-19T19:14:19;100642.81;;;19.34;72.10
29163;BME280;20331;53.144;8.208;2023-09-19T19:19:43;100658.94;;;19.28;71.97
29163;BME280;20331;53.144;8.208;2023-09-19T19:25:05;100653.88;;;19.25;72.06
29163;BME280;20331;53.144;8.208;2023-09-19T19:30:26;100658.56;;;19.34;71.70
29163;BME280;20331;53.144;8.208;2023-09-19T19:35:48;100664.75;;;19.33;72.07
29163;BME280;20331;53.144;8.208;2023-09-19T19:41:10;100672.06;;;19.28;72.36
29163;BME280;20331;53.144;8.208;2023-09-19T19:46:32;100661.88;;;19.23;73.00
29163;BME280;20331;53.144;8.208;2023-09-19T19:51:53;100674.25;;;19.21;73.50
29163;BME280;20331;53.144;8.208;2023-09-19T19:57:15;100661.47;;;19.17;73.41
29163;BME280;20331;53.144;8.208;2023-09-19T20:02:39;100672.19;;;19.14;74.02
29163;BME280;20331;53.144;8.208;2023-09-19T20:08:01;100668.88;;;19.10;75.11
29163;BME280;20331;53.144;8.208;2023-09-19T20:13:24;100678.44;;;18.98;76.43
29163;BME280;20331;53.144;8.208;2023-09-19T20:18:47;100672.56;;;18.82;77.81
29163;BME280;20331;53.144;8.208;2023-09-19T20:24:08;100677.09;;;18.66;79.19
29163;BME280;20331;53.144;8.208;2023-09-19T20:29:35;100671.19;;;18.50;80.47
29163;BME280;20331;53.144;8.208;2023-09-19T20:34:59;100665.59;;;18.42;81.43
29163;BME280;20331;53.144;8.208;2023-09-19T20:40:21;100673.84;;;18.36;80.80
29163;BME280;20331;53.144;8.208;2023-09-19T20:45:43;100658.50;;;18.30;80.81
29163;BME280;20331;53.144;8.208;2023-09-19T20:51:06;100679.69;;;18.27;81.64
29163;BME280;20331;53.144;8.208;2023-09-19T20:56:29;100677.53;;;18.20;82.36
29163;BME280;20331;53.144;8.208;2023-09-19T21:01:53;100691.31;;;18.09;83.96
29163;BME280;20331;53.144;8.208;2023-09-19T21:07:15;100692.56;;;18.03;83.54
29163;BME280;20331;53.144;8.208;2023-09-19T21:12:36;100691.91;;;18.00;84.68
29163;BME280;20331;53.144;8.208;2023-09-19T21:17:58;100686.28;;;17.92;84.58
29163;BME280;20331;53.144;8.208;2023-09-19T21:23:20;100682.38;;;17.85;84.58
29163;BME280;20331;53.144;8.208;2023-09-19T21:28:42;100678.81;;;17.86;84.90
29163;BME280;20331;53.144;8.208;2023-09-19T21:34:05;100678.91;;;17.84;84.64
29163;BME280;20331;53.144;8.208;2023-09-19T21:39:28;100672.00;;;17.83;84.90
29163;BME280;20331;53.144;8.208;2023-09-19T21:44:49;100662.19;;;17.87;84.45
29163;BME280;20331;53.144;8.208;2023-09-19T21:50:11;100664.41;;;17.93;84.54
29163;BME280;20331;53.144;8.208;2023-09-19T21:55:33;100651.22;;;17.94;84.45
29163;BME280;20331;53.144;8.208;2023-09-19T22:00:54;100656.16;;;17.99;84.69
29163;BME280;20331;53.144;8.208;2023-09-19T22:06:16;100650.72;;;18.02;83.90
29163;BME280;20331;53.144;8.208;2023-09-19T22:11:38;100657.34;;;18.07;83.32
29163;BME280;20331;53.144;8.208;2023-09-19T22:17:01;100669.91;;;18.02;84.43
29163;BME280;20331;53.144;8.208;2023-09-19T22:22:23;100655.41;;;17.97;85.61
29163;BME280;20331;53.144;8.208;2023-09-19T22:27:46;100677.00;;;18.00;84.98
29163;BME280;20331;53.144;8.208;2023-09-19T22:33:08;100670.00;;;18.01;85.01
29163;BME280;20331;53.144;8.208;2023-09-19T22:38:32;100669.06;;;18.02;84.59
29163;BME280;20331;53.144;8.208;2023-09-19T22:43:57;100653.53;;;17.99;85.06
29163;BME280;20331;53.144;8.208;2023-09-19T22:49:20;100666.25;;;18.05;85.03
29163;BME280;20331;53.144;8.208;2023-09-19T22:54:42;100672.03;;;18.10;84.33
29163;BME280;20331;53.144;8.208;2023-09-19T23:00:05;100678.56;;;18.17;83.29
29163;BME280;20331;53.144;8.208;2023-09-19T23:05:34;100674.59;;;18.24;83.42
29163;BME280;20331;53.144;8.208;2023-09-19T23:11:01;100675.47;;;18.25;83.14
29163;BME280;20331;53.144;8.208;2023-09-19T23:16:25;100670.22;;;18.25;82.69
29163;BME280;20331;53.144;8.208;2023-09-19T23:21:58;100668.97;;;18.30;82.75
29163;BME280;20331;53.144;8.208;2023-09-19T23:27:44;100670.69;;;18.31;82.27
29163;BME280;20331;53.144;8.208;2023-09-19T23:33:08;100678.44;;;18.33;82.39
29163;BME280;20331;53.144;8.208;2023-09-19T23:38:32;100676.63;;;18.33;82.21
29163;BME280;20331;53.144;8.208;2023-09-19T23:43:55;100682.63;;;18.35;82.35
29163;BME280;20331;53.144;8.208;2023-09-19T23:49:19;100683.47;;;18.36;81.99
29163;BME280;20331;53.144;8.208;2023-09-19T23:54:42;100684.50;;;18.33;82.00
